createdAt,value
2022-08-12T00:00:35.458Z,99386.97
2022-08-12T00:05:21.453Z,99387.09
2022-08-12T00:10:02.106Z,99383.78
2022-08-12T00:14:22.101Z,99375.16
2022-08-12T00:18:42.153Z,99371.84
2022-08-12T00:23:02.569Z,99378.97
2022-08-12T00:27:27.337Z,99381.84
2022-08-12T00:32:03.103Z,99381.09
2022-08-12T00:36:35.356Z,99378.63
2022-08-12T00:40:57.630Z,99384.03
2022-08-12T00:44:59.159Z,99379.97
2022-08-12T00:49:01.979Z,99392.50
2022-08-12T00:53:03.625Z,99380.34
2022-08-12T00:57:28.932Z,99387.41
2022-08-12T01:02:10.801Z,99386.59
2022-08-12T01:06:14.370Z,99379.72
2022-08-12T01:10:34.070Z,99387.72
2022-08-12T01:14:37.219Z,99388.69
2022-08-12T01:18:40.145Z,99390.63
2022-08-12T01:22:54.139Z,99389.97
2022-08-12T01:26:56.666Z,99390.03
2022-08-12T01:31:02.340Z,99388.44
2022-08-12T01:35:12.882Z,99378.94
2022-08-12T01:39:16.270Z,99379.06
2022-08-12T01:43:21.598Z,99386.97
2022-08-12T01:47:56.427Z,99382.81
2022-08-12T01:52:21.656Z,99381.22
2022-08-12T01:56:26.093Z,99377.03
2022-08-12T02:00:46.940Z,99373.63
2022-08-12T02:05:53.905Z,99365.00
2022-08-12T02:10:50.672Z,99367.63
2022-08-12T02:15:13.153Z,99361.78
2022-08-12T02:19:37.311Z,99362.75
2022-08-12T02:23:40.505Z,99368.97
2022-08-12T02:27:54.105Z,99370.94
2022-08-12T02:31:57.298Z,99368.38
2022-08-12T02:36:02.497Z,99371.81
2022-08-12T02:40:05.419Z,99363.13
2022-08-12T02:44:10.680Z,99369.25
2022-08-12T02:48:17.561Z,99374.53
2022-08-12T02:52:20.815Z,99373.06
2022-08-12T02:56:22.969Z,99376.66
2022-08-12T03:00:26.159Z,99382.00
2022-08-12T03:04:43.470Z,99379.41
2022-08-12T03:08:53.739Z,99389.84
2022-08-12T03:12:58.624Z,99393.34
2022-08-12T03:17:30.207Z,99390.72
2022-08-12T03:21:57.958Z,99389.09
2022-08-12T03:25:58.958Z,99401.38
2022-08-12T03:30:00.826Z,99401.38
2022-08-12T03:34:07.888Z,99402.34
2022-08-12T03:38:12.445Z,99398.00
2022-08-12T03:42:33.046Z,99401.47
2022-08-12T03:46:57.514Z,99392.03
2022-08-12T03:51:18.449Z,99386.84
2022-08-12T03:55:38.745Z,99398.25
2022-08-12T03:59:58.937Z,99390.59
2022-08-12T04:04:02.020Z,99399.34
2022-08-12T04:08:04.108Z,99401.97
2022-08-12T04:12:26.044Z,99398.63
2022-08-12T04:16:28.720Z,99403.94
2022-08-12T04:20:30.329Z,99410.00
2022-08-12T04:24:34.860Z,99410.19
2022-08-12T04:28:36.715Z,99408.44
2022-08-12T04:32:43.707Z,99406.72
2022-08-12T04:36:46.037Z,99413.63
2022-08-12T04:40:48.550Z,99410.94
2022-08-12T04:44:49.880Z,99414.31
2022-08-12T04:48:52.576Z,99415.94
2022-08-12T04:52:55.481Z,99421.06
2022-08-12T04:57:03.563Z,99419.31
2022-08-12T05:01:07.761Z,99420.88
2022-08-12T05:05:18.745Z,99427.69
2022-08-12T05:09:20.335Z,99431.00
2022-08-12T05:13:27.306Z,99429.00
2022-08-12T05:17:29.015Z,99426.94
2022-08-12T05:21:32.958Z,99426.66
2022-08-12T05:25:35.050Z,99427.16
2022-08-12T05:30:06.576Z,99428.50
2022-08-12T05:33:58.130Z,99430.72
2022-08-12T05:38:18.345Z,99432.75
2022-08-12T05:42:19.763Z,99434.75
2022-08-12T05:46:37.409Z,99435.72
2022-08-12T05:50:39.133Z,99426.59
2022-08-12T05:54:57.112Z,99428.91
2022-08-12T05:59:01.577Z,99433.34
2022-08-12T06:03:04.838Z,99433.34
2022-08-12T06:07:59.174Z,99427.50
2022-08-12T06:11:30.292Z,99422.59
2022-08-12T06:15:33.201Z,99426.22
2022-08-12T06:20:27.548Z,99429.19
2022-08-12T06:23:57.438Z,99425.97
2022-08-12T06:28:07.206Z,99429.75
2022-08-12T06:32:09.969Z,99425.34
2022-08-12T06:36:14.103Z,99426.00
2022-08-12T06:40:41.366Z,99429.81
2022-08-12T06:44:42.838Z,99426.88
2022-08-12T06:48:44.310Z,99418.81
2022-08-12T06:52:46.141Z,99439.22
2022-08-12T06:57:03.680Z,99431.16
2022-08-12T07:01:07.364Z,99426.19
2022-08-12T07:05:09.374Z,99422.03
2022-08-12T07:09:14.532Z,99418.63
2022-08-12T07:14:11.199Z,99406.22
2022-08-12T07:18:00.855Z,99408.81
2022-08-12T07:22:06.340Z,99411.09
2022-08-12T07:26:09.735Z,99418.09
2022-08-12T07:30:14.414Z,99410.75
2022-08-12T07:34:17.253Z,99420.88
2022-08-12T07:38:33.465Z,99420.38
2022-08-12T07:42:35.315Z,99428.63
2022-08-12T07:46:40.690Z,99424.72
2022-08-12T07:50:42.213Z,99416.94
2022-08-12T07:54:44.538Z,99424.28
2022-08-12T07:58:47.204Z,99416.72
2022-08-12T08:02:49.511Z,99420.88
2022-08-12T08:06:51.265Z,99426.16
2022-08-12T08:11:15.383Z,99432.28
2022-08-12T08:15:17.208Z,99431.78
2022-08-12T08:19:25.519Z,99427.69
2022-08-12T08:23:56.274Z,99431.44
2022-08-12T08:28:05.940Z,99429.56
2022-08-12T08:32:07.606Z,99435.66
2022-08-12T08:36:16.351Z,99434.00
2022-08-12T08:40:43.696Z,99419.63
2022-08-12T08:44:45.460Z,99416.72
2022-08-12T08:48:46.903Z,99421.38
2022-08-12T08:52:49.057Z,99422.22
2022-08-12T08:56:51.197Z,99421.09
2022-08-12T09:00:52.865Z,99425.22
2022-08-12T09:05:13.457Z,99413.84
2022-08-12T09:09:17.905Z,99409.34
2022-08-12T09:14:10.554Z,99412.81
2022-08-12T09:17:57.474Z,99407.94
2022-08-12T09:22:00.761Z,99403.72
2022-08-12T09:30:41.338Z,99403.44
2022-08-12T09:34:50.632Z,99400.22
2022-08-12T09:38:59.026Z,99393.31
2022-08-12T09:43:21.290Z,99398.69
2022-08-12T09:47:29.668Z,99399.53
2022-08-12T09:51:37.475Z,99385.28
2022-08-12T09:56:33.365Z,99372.06
2022-08-12T10:00:17.454Z,99372.69
2022-08-12T10:04:20.749Z,99376.53
2022-08-12T10:08:24.458Z,99367.25
2022-08-12T10:13:06.982Z,99357.28
2022-08-12T10:17:08.596Z,99352.78
2022-08-12T10:21:16.373Z,99349.03
2022-08-12T10:26:35.588Z,99352.41
2022-08-12T10:30:37.148Z,99340.53
2022-08-12T10:34:26.680Z,99335.47
2022-08-12T10:38:38.952Z,99340.69
2022-08-12T10:43:01.731Z,99336.59
2022-08-12T10:47:26.616Z,99323.03
2022-08-12T10:51:51.700Z,99323.88
2022-08-12T10:55:56.430Z,99331.22
2022-08-12T11:00:31.353Z,99320.22
2022-08-12T11:04:39.555Z,99325.16
2022-08-12T11:08:46.432Z,99314.00
2022-08-12T11:12:59.120Z,99316.38
2022-08-12T11:17:33.944Z,99309.13
2022-08-12T11:21:51.209Z,99302.75
2022-08-12T11:25:57.648Z,99294.13
2022-08-12T11:30:05.702Z,99305.47
2022-08-12T11:34:51.715Z,99299.47
2022-08-12T11:38:29.612Z,99297.03
2022-08-12T11:42:32.565Z,99296.72
2022-08-12T11:46:38.197Z,99287.81
2022-08-12T11:50:40.638Z,99291.69
2022-08-12T11:54:51.151Z,99287.66
2022-08-12T12:01:58.957Z,99291.50
2022-08-12T12:03:17.317Z,99269.56
2022-08-12T12:07:18.945Z,99274.91
2022-08-12T12:11:22.059Z,99255.66
2022-08-12T12:15:25.280Z,99251.00
2022-08-12T12:19:46.255Z,99252.84
2022-08-12T12:23:48.112Z,99249.56
2022-08-12T12:28:05.195Z,99235.25
2022-08-12T12:32:11.820Z,99221.03
2022-08-12T12:36:20.574Z,99232.94
2022-08-12T12:40:29.822Z,99225.66
2022-08-12T12:44:42.164Z,99217.75
2022-08-12T12:48:53.164Z,99216.56
2022-08-12T12:52:54.908Z,99221.16
2022-08-12T12:56:58.513Z,99209.78
2022-08-12T13:01:04.699Z,99200.50
2022-08-12T13:05:28.275Z,99206.03
2022-08-12T13:09:36.042Z,99190.50
2022-08-12T13:14:07.500Z,99192.78
2022-08-12T13:18:04.984Z,99190.72
2022-08-12T13:22:19.366Z,99199.09
2022-08-12T13:26:22.070Z,99198.69
2022-08-12T13:30:26.056Z,99196.06
2022-08-12T13:34:31.812Z,99186.16
2022-08-12T13:38:44.278Z,99192.34
2022-08-12T13:43:01.976Z,99181.41
2022-08-12T13:47:06.724Z,99186.78
2022-08-12T13:51:24.435Z,99187.91
2022-08-12T13:55:30.972Z,99183.25
2022-08-12T13:59:48.078Z,99183.53
2022-08-12T14:03:51.928Z,99173.50
2022-08-12T14:08:01.692Z,99166.38
2022-08-12T14:12:05.600Z,99168.63
2022-08-12T14:16:14.253Z,99157.38
2022-08-12T14:20:16.061Z,99155.63
2022-08-12T14:24:17.517Z,99155.50
2022-08-12T14:28:23.250Z,99160.72
2022-08-12T14:32:25.450Z,99152.25
2022-08-12T14:36:27.289Z,99164.00
2022-08-12T14:40:29.928Z,99152.31
2022-08-12T14:44:57.267Z,99152.81
2022-08-12T14:48:54.410Z,99156.25
2022-08-12T14:57:20.308Z,99145.81
2022-08-12T15:01:41.715Z,99137.59
2022-08-12T15:06:05.296Z,99137.09
2022-08-12T15:10:06.117Z,99137.03
2022-08-12T15:14:09.241Z,99133.16
2022-08-12T15:18:22.678Z,99144.09
2022-08-12T15:22:39.581Z,99129.59
2022-08-12T15:26:46.635Z,99136.19
2022-08-12T15:30:52.665Z,99123.47
2022-08-12T15:34:54.903Z,99120.25
2022-08-12T15:38:57.305Z,99112.53
2022-08-12T15:43:00.662Z,99107.03
2022-08-12T15:47:03.884Z,99120.78
2022-08-12T15:51:06.151Z,99113.25
2022-08-12T15:55:14.058Z,99112.25
2022-08-12T15:59:18.345Z,99107.22
2022-08-12T16:03:46.141Z,99111.44
2022-08-12T16:07:57.741Z,99116.66
2022-08-12T16:12:03.115Z,99104.22
2022-08-12T16:16:20.943Z,99114.63
2022-08-12T16:20:32.991Z,99114.31
2022-08-12T16:24:42.054Z,99109.81
2022-08-12T16:28:47.368Z,99113.00
2022-08-12T16:32:53.922Z,99101.50
2022-08-12T16:37:00.033Z,99108.63
2022-08-12T16:41:01.637Z,99113.28
2022-08-12T16:45:03.402Z,99102.63
2022-08-12T16:49:09.208Z,99094.44
2022-08-12T16:53:18.501Z,99095.97
2022-08-12T16:57:34.950Z,99096.31
2022-08-12T17:01:37.520Z,99104.03
2022-08-12T17:05:40.560Z,99094.69
2022-08-12T17:09:50.629Z,99101.41
2022-08-12T17:13:54.433Z,99103.72
2022-08-12T17:18:39.409Z,99094.75
2022-08-12T17:22:21.670Z,99095.25
2022-08-12T17:26:28.229Z,99099.09
2022-08-12T17:30:35.344Z,99102.69
2022-08-12T17:34:56.383Z,99101.53
2022-08-12T17:38:57.994Z,99103.13
2022-08-12T17:43:57.347Z,99103.03
2022-08-12T17:47:35.937Z,99100.69
2022-08-12T17:51:50.422Z,99106.06
2022-08-12T17:55:52.598Z,99102.84
2022-08-12T17:59:55.412Z,99097.88
2022-08-12T18:04:21.470Z,99099.94
2022-08-12T18:08:22.042Z,99115.84
2022-08-12T18:12:42.703Z,99118.41
2022-08-12T18:16:53.507Z,99115.88
2022-08-12T18:20:57.581Z,99124.88
2022-08-12T18:25:02.662Z,99124.75
2022-08-12T18:29:06.561Z,99132.84
2022-08-12T18:33:11.925Z,99130.63
2022-08-12T18:37:26.663Z,99136.34
2022-08-12T18:41:35.991Z,99132.31
2022-08-12T18:45:47.302Z,99127.50
2022-08-12T18:49:58.867Z,99133.34
2022-08-12T18:54:06.597Z,99129.28
2022-08-12T18:58:13.949Z,99134.50
2022-08-12T19:02:25.254Z,99138.53
2022-08-12T19:06:35.657Z,99141.66
2022-08-12T19:10:42.904Z,99142.38
2022-08-12T19:15:04.175Z,99149.16
2022-08-12T19:19:09.773Z,99144.25
2022-08-12T19:23:16.612Z,99158.03
2022-08-12T19:27:23.321Z,99166.09
2022-08-12T19:31:58.856Z,99158.53
2022-08-12T19:36:07.647Z,99160.59
2022-08-12T19:40:32.495Z,99164.94
2022-08-12T19:44:37.729Z,99164.75
2022-08-12T19:48:40.974Z,99160.50
2022-08-12T19:52:44.810Z,99157.13
2022-08-12T19:56:50.517Z,99167.75
2022-08-12T20:00:54.976Z,99159.72
2022-08-12T20:06:06.241Z,99165.97
2022-08-12T20:09:19.715Z,99167.78
2022-08-12T20:13:27.215Z,99173.97
2022-08-12T20:17:51.276Z,99176.50
2022-08-12T20:21:54.929Z,99176.38
2022-08-12T20:26:01.960Z,99183.00
2022-08-12T20:30:11.444Z,99192.47
2022-08-12T20:34:16.797Z,99187.78
2022-08-12T20:38:26.896Z,99194.47
2022-08-12T20:42:32.123Z,99188.78
2022-08-12T20:46:33.903Z,99193.63
2022-08-12T20:50:36.493Z,99188.00
2022-08-12T20:54:40.486Z,99192.81
2022-08-12T20:58:41.887Z,99193.16
2022-08-12T21:02:50.214Z,99192.84
2022-08-12T21:07:04.601Z,99191.31
2022-08-12T21:11:11.510Z,99186.56
2022-08-12T21:15:18.167Z,99184.34
2022-08-12T21:19:53.007Z,99179.38
2022-08-12T21:23:48.972Z,99185.06
2022-08-12T21:27:59.553Z,99182.78
2022-08-12T21:32:39.761Z,99180.53
2022-08-12T21:36:34.525Z,99189.53
2022-08-12T21:40:37.520Z,99185.56
2022-08-12T21:45:45.730Z,99184.97
2022-08-12T21:49:54.119Z,99188.81
2022-08-12T21:54:07.670Z,99192.59
2022-08-12T21:58:10.714Z,99189.44
2022-08-12T22:02:32.097Z,99195.56
2022-08-12T22:06:43.854Z,99194.84
2022-08-12T22:10:46.132Z,99192.56
2022-08-12T22:14:48.736Z,99196.31
2022-08-12T22:18:50.839Z,99194.00
2022-08-12T22:22:56.391Z,99190.72
2022-08-12T22:27:18.178Z,99192.56
2022-08-12T22:31:21.924Z,99192.81
2022-08-12T22:35:55.846Z,99193.94
2022-08-12T22:39:53.198Z,99191.63
2022-08-12T22:44:14.558Z,99191.94
2022-08-12T22:48:21.553Z,99194.94
2022-08-12T22:52:27.759Z,99191.78
2022-08-12T22:56:32.224Z,99201.78
2022-08-12T23:00:35.396Z,99201.19
2022-08-12T23:04:37.025Z,99198.88
2022-08-12T23:08:38.458Z,99190.13
2022-08-12T23:12:59.281Z,99195.44
2022-08-12T23:17:07.417Z,99191.91
2022-08-12T23:21:23.646Z,99189.28
2022-08-12T23:25:54.191Z,99196.31
2022-08-12T23:30:18.021Z,99185.03
2022-08-12T23:34:13.769Z,99186.94
2022-08-12T23:38:31.134Z,99178.13
2022-08-12T23:42:33.598Z,99190.28
2022-08-12T23:46:36.397Z,99189.38
2022-08-12T23:50:40.759Z,99185.84
2022-08-12T23:54:46.514Z,99182.53
2022-08-12T23:59:00.418Z,99187.00
